createdAt,value
2017-06-28T00:00:09.140Z,10.29
2017-06-28T00:01:08.832Z,10.13
2017-06-28T00:02:09.125Z,10.16
2017-06-28T00:03:09.114Z,10.14
2017-06-28T00:04:09.119Z,10.09
2017-06-28T00:05:09.098Z,10.18
2017-06-28T00:06:09.092Z,10.13
2017-06-28T00:07:09.085Z,9.95
2017-06-28T00:08:09.074Z,9.99
2017-06-28T00:09:09.070Z,9.91
2017-06-28T00:10:09.058Z,9.91
2017-06-28T00:11:09.049Z,9.89
2017-06-28T00:12:09.040Z,9.96
2017-06-28T00:13:09.036Z,9.86
2017-06-28T00:14:09.024Z,9.96
2017-06-28T00:15:09.016Z,9.96
2017-06-28T00:16:09.007Z,9.89
2017-06-28T00:17:09.003Z,9.96
2017-06-28T00:18:08.690Z,9.93
2017-06-28T00:19:08.984Z,10.04
2017-06-28T00:20:08.977Z,9.99
2017-06-28T00:21:08.963Z,9.83
2017-06-28T00:22:08.957Z,9.78
2017-06-28T00:23:08.951Z,9.88
2017-06-28T00:24:08.941Z,9.93
2017-06-28T00:25:08.928Z,9.95
2017-06-28T00:26:08.926Z,9.99
2017-06-28T00:27:08.914Z,10.04
2017-06-28T00:28:08.912Z,9.99
2017-06-28T00:29:08.899Z,9.98
2017-06-28T00:30:08.890Z,9.96
2017-06-28T00:31:08.890Z,9.88
2017-06-28T00:32:08.875Z,9.88
2017-06-28T00:33:08.871Z,9.88
2017-06-28T00:34:08.862Z,9.81
2017-06-28T00:35:08.554Z,9.74
2017-06-28T00:36:08.844Z,9.8
2017-06-28T00:37:08.833Z,9.77
2017-06-28T00:38:08.822Z,9.86
2017-06-28T00:39:08.824Z,9.96
2017-06-28T00:40:08.810Z,9.93
2017-06-28T00:41:08.799Z,10.02
2017-06-28T00:42:08.789Z,10.07
2017-06-28T00:43:08.786Z,10.02
2017-06-28T00:44:08.776Z,10.04
2017-06-28T00:45:08.768Z,9.96
2017-06-28T00:46:08.754Z,10.04
2017-06-28T00:47:08.749Z,10.07
2017-06-28T00:48:08.738Z,10.18
2017-06-28T00:49:08.730Z,10.14
2017-06-28T00:50:08.724Z,10.25
2017-06-28T00:51:08.710Z,10.17
2017-06-28T00:52:08.703Z,10.29
2017-06-28T00:53:08.692Z,10.22
2017-06-28T00:54:08.687Z,10.26
2017-06-28T00:55:08.679Z,10.2
2017-06-28T00:56:08.671Z,10.24
2017-06-28T00:57:08.359Z,10.14
2017-06-28T00:58:08.655Z,10.1
2017-06-28T00:59:08.645Z,10.13
2017-06-28T01:00:08.637Z,10.11
2017-06-28T01:01:08.624Z,10.04
2017-06-28T01:02:08.620Z,10.02
2017-06-28T01:03:08.612Z,10.07
2017-06-28T01:04:08.605Z,10.18
2017-06-28T01:05:08.597Z,10.2
2017-06-28T01:06:08.586Z,10.17
2017-06-28T01:07:08.573Z,10.32
2017-06-28T01:08:08.569Z,10.35
2017-06-28T01:09:08.563Z,10.24
2017-06-28T01:10:08.549Z,10.32
2017-06-28T01:11:08.544Z,10.31
2017-06-28T01:12:08.233Z,10.32
2017-06-28T01:13:08.527Z,10.36
2017-06-28T01:14:08.518Z,10.32
2017-06-28T01:15:08.508Z,10.43
2017-06-28T01:16:08.499Z,10.36
2017-06-28T01:17:08.492Z,10.42
2017-06-28T01:18:08.484Z,10.43
2017-06-28T01:19:08.479Z,10.44
2017-06-28T01:20:08.466Z,10.49
2017-06-28T01:21:08.456Z,10.47
2017-06-28T01:22:08.150Z,10.35
2017-06-28T01:23:08.441Z,10.32
2017-06-28T01:24:08.135Z,10.16
2017-06-28T01:25:08.428Z,10.09
2017-06-28T01:26:08.415Z,10.09
2017-06-28T01:27:08.106Z,10.13
2017-06-28T01:28:08.401Z,10.13
2017-06-28T01:29:08.088Z,9.98
2017-06-28T01:30:08.379Z,9.83
2017-06-28T01:31:08.372Z,9.86
2017-06-28T01:32:08.064Z,9.77
2017-06-28T01:33:08.057Z,9.68
2017-06-28T01:34:08.343Z,9.65
2017-06-28T01:35:08.039Z,9.65
2017-06-28T01:36:08.331Z,9.7
2017-06-28T01:37:08.319Z,9.77
2017-06-28T01:38:08.310Z,9.85
2017-06-28T01:39:08.305Z,9.73
2017-06-28T01:40:08.293Z,9.67
2017-06-28T01:41:08.287Z,9.88
2017-06-28T01:42:08.280Z,9.91
2017-06-28T01:43:08.270Z,9.96
2017-06-28T01:44:08.259Z,9.88
2017-06-28T01:45:07.950Z,9.96
2017-06-28T01:46:08.247Z,9.99
2017-06-28T01:47:08.237Z,10.07
2017-06-28T01:48:08.226Z,10.17
2017-06-28T01:49:08.216Z,10.29
2017-06-28T01:50:08.216Z,10.17
2017-06-28T01:51:08.199Z,10.09
2017-06-28T01:52:07.890Z,9.98
2017-06-28T01:53:08.183Z,9.93
2017-06-28T01:54:08.178Z,9.85
2017-06-28T01:55:08.164Z,9.89
2017-06-28T01:56:08.156Z,9.78
2017-06-28T01:57:08.143Z,9.74
2017-06-28T01:58:08.140Z,9.83
2017-06-28T01:59:08.129Z,9.89
2017-06-28T02:00:07.817Z,9.95
2017-06-28T02:01:08.111Z,9.92
2017-06-28T02:02:08.106Z,9.89
2017-06-28T02:03:08.093Z,9.99
2017-06-28T02:04:08.123Z,10.06
2017-06-28T02:05:08.077Z,10.01
2017-06-28T02:06:08.107Z,10.07
2017-06-28T02:07:07.764Z,10.14
2017-06-28T02:08:08.053Z,10.17
2017-06-28T02:09:08.045Z,10.2
2017-06-28T02:10:07.735Z,10.2
2017-06-28T02:11:08.028Z,10.34
2017-06-28T02:12:08.018Z,10.47
2017-06-28T02:13:08.009Z,10.51
2017-06-28T02:14:07.999Z,10.51
2017-06-28T02:15:07.994Z,10.47
2017-06-28T02:16:07.985Z,10.35
2017-06-28T02:17:07.975Z,10.36
2017-06-28T02:18:07.969Z,10.35
2017-06-28T02:19:07.656Z,10.28
2017-06-28T02:20:07.649Z,10.35
2017-06-28T02:21:07.938Z,10.29
2017-06-28T02:22:07.941Z,10.24
2017-06-28T02:23:07.927Z,10.29
2017-06-28T02:24:07.917Z,10.09
2017-06-28T02:25:07.910Z,10.04
2017-06-28T02:26:07.903Z,10.02
2017-06-28T02:27:07.891Z,10.02
2017-06-28T02:28:07.884Z,10.04
2017-06-28T02:29:07.876Z,9.89
2017-06-28T02:30:07.568Z,9.73
2017-06-28T02:31:07.862Z,9.52
2017-06-28T02:32:07.853Z,9.4
2017-06-28T02:33:07.845Z,9.15
2017-06-28T02:34:07.834Z,9.16
2017-06-28T02:35:07.827Z,9.34
2017-06-28T02:36:07.820Z,9.67
2017-06-28T02:37:07.808Z,9.67
2017-06-28T02:38:07.801Z,9.67
2017-06-28T02:39:07.791Z,9.74
2017-06-28T02:40:07.785Z,9.7
2017-06-28T02:41:07.773Z,9.77
2017-06-28T02:42:07.767Z,9.88
2017-06-28T02:43:07.754Z,9.86
2017-06-28T02:44:07.749Z,9.85
2017-06-28T02:45:07.746Z,9.86
2017-06-28T02:46:07.428Z,9.88
2017-06-28T02:47:07.724Z,9.86
2017-06-28T02:48:07.720Z,9.91
2017-06-28T02:49:07.704Z,9.85
2017-06-28T02:50:07.696Z,9.86
2017-06-28T02:51:07.685Z,9.81
2017-06-28T02:52:07.679Z,9.5
2017-06-28T02:53:07.669Z,9.37
2017-06-28T02:54:07.661Z,9.42
2017-06-28T02:55:07.655Z,9.38
2017-06-28T02:56:07.641Z,9.35
2017-06-28T02:57:07.637Z,9.3
2017-06-28T02:58:07.628Z,9.31
2017-06-28T02:59:07.615Z,9.3
2017-06-28T03:00:07.308Z,9.24
2017-06-28T03:01:07.297Z,9.26
2017-06-28T03:02:07.588Z,9.15
2017-06-28T03:03:07.580Z,9.08
2017-06-28T03:04:07.572Z,9.15
2017-06-28T03:05:07.259Z,8.97
2017-06-28T03:06:07.554Z,9
2017-06-28T03:07:07.241Z,9.01
2017-06-28T03:08:07.535Z,9.1
2017-06-28T03:09:07.525Z,9.13
2017-06-28T03:10:07.215Z,9.3
2017-06-28T03:11:07.510Z,9.3
2017-06-28T03:12:07.499Z,9.24
2017-06-28T03:13:07.190Z,9.27
2017-06-28T03:14:07.477Z,9.31
2017-06-28T03:15:07.468Z,9.04
2017-06-28T03:16:07.462Z,8.8
2017-06-28T03:17:07.149Z,8.85
2017-06-28T03:18:07.443Z,9.01
2017-06-28T03:19:07.430Z,9.06
2017-06-28T03:20:07.123Z,9.1
2017-06-28T03:21:07.416Z,9.08
2017-06-28T03:22:07.404Z,9.26
2017-06-28T03:23:07.399Z,9.23
2017-06-28T03:24:07.085Z,9.13
2017-06-28T03:25:07.071Z,9.03
2017-06-28T03:26:07.064Z,9.06
2017-06-28T03:27:07.055Z,8.98
2017-06-28T03:28:07.357Z,8.97
2017-06-28T03:29:07.340Z,8.85
2017-06-28T03:30:07.332Z,8.49
2017-06-28T03:31:07.315Z,8.28
2017-06-28T03:32:07.311Z,8.25
2017-06-28T03:33:07.302Z,8.39
2017-06-28T03:34:07.292Z,8.52
2017-06-28T03:35:07.275Z,8.73
2017-06-28T03:36:07.270Z,8.78
2017-06-28T03:37:07.295Z,9.03
2017-06-28T03:38:07.251Z,8.98
2017-06-28T03:39:06.940Z,9.01
2017-06-28T03:40:07.234Z,9.12
2017-06-28T03:41:07.218Z,9.12
2017-06-28T03:42:07.223Z,9.15
2017-06-28T03:43:07.199Z,9.12
2017-06-28T03:44:07.190Z,9.16
2017-06-28T03:45:07.181Z,9.15
2017-06-28T03:46:07.178Z,9.03
2017-06-28T03:47:07.163Z,9
2017-06-28T03:48:07.155Z,9.04
2017-06-28T03:49:07.143Z,9
2017-06-28T03:50:07.135Z,9.16
2017-06-28T03:51:07.122Z,9.1
2017-06-28T03:52:07.115Z,8.96
2017-06-28T03:53:07.104Z,8.94
2017-06-28T03:54:07.097Z,8.85
2017-06-28T03:55:07.092Z,8.94
2017-06-28T03:56:07.078Z,9.08
2017-06-28T03:57:07.069Z,8.91
2017-06-28T03:58:07.059Z,8.85
2017-06-28T03:59:06.747Z,8.76
2017-06-28T04:00:07.046Z,8.76
2017-06-28T04:01:07.034Z,8.8
2017-06-28T04:02:07.023Z,8.73
2017-06-28T04:03:07.016Z,8.6
2017-06-28T04:04:07.010Z,8.76
2017-06-28T04:05:06.993Z,8.73
2017-06-28T04:06:06.986Z,8.7
2017-06-28T04:07:06.976Z,8.65
2017-06-28T04:08:06.977Z,8.68
2017-06-28T04:09:06.956Z,8.71
2017-06-28T04:10:06.951Z,8.64
2017-06-28T04:11:06.932Z,8.68
2017-06-28T04:12:06.930Z,8.67
2017-06-28T04:13:06.917Z,8.76
2017-06-28T04:14:06.911Z,8.83
2017-06-28T04:15:06.926Z,8.82
2017-06-28T04:16:06.891Z,8.83
2017-06-28T04:17:06.586Z,8.93
2017-06-28T04:18:06.870Z,8.97
2017-06-28T04:19:06.860Z,8.96
2017-06-28T04:20:06.847Z,8.88
2017-06-28T04:21:06.843Z,8.76
2017-06-28T04:22:06.832Z,8.71
2017-06-28T04:23:06.822Z,8.71
2017-06-28T04:24:06.819Z,8.75
2017-06-28T04:25:06.807Z,8.68
2017-06-28T04:26:06.797Z,8.68
2017-06-28T04:27:06.782Z,8.68
2017-06-28T04:28:06.780Z,8.58
2017-06-28T04:29:06.793Z,8.52
2017-06-28T04:30:06.455Z,8.5
2017-06-28T04:31:06.750Z,8.47
2017-06-28T04:32:06.736Z,8.42
2017-06-28T04:33:06.732Z,8.45
2017-06-28T04:34:06.723Z,8.46
2017-06-28T04:35:06.707Z,8.5
2017-06-28T04:36:06.696Z,8.5
2017-06-28T04:37:06.687Z,8.49
2017-06-28T04:38:06.675Z,8.5
2017-06-28T04:39:06.666Z,8.49
2017-06-28T04:40:06.662Z,8.52
2017-06-28T04:41:06.651Z,8.49
2017-06-28T04:42:06.645Z,8.45
2017-06-28T04:43:06.630Z,8.34
2017-06-28T04:44:06.617Z,8.43
2017-06-28T04:45:06.611Z,8.43
2017-06-28T04:46:06.601Z,8.5
2017-06-28T04:47:06.591Z,8.55
2017-06-28T04:48:06.582Z,8.6
2017-06-28T04:49:06.573Z,8.63
2017-06-28T04:50:06.566Z,8.73
2017-06-28T04:51:06.551Z,8.6
2017-06-28T04:52:06.545Z,8.76
2017-06-28T04:53:06.238Z,8.73
2017-06-28T04:54:06.529Z,8.63
2017-06-28T04:55:06.525Z,8.49
2017-06-28T04:56:06.520Z,8.37
2017-06-28T04:57:06.504Z,8.37
2017-06-28T04:58:06.198Z,8.29
2017-06-28T04:59:06.479Z,8.34
2017-06-28T05:00:06.471Z,8.39
2017-06-28T05:01:06.462Z,8.52
2017-06-28T05:02:06.454Z,8.75
2017-06-28T05:03:06.446Z,8.82
2017-06-28T05:04:06.432Z,8.96
2017-06-28T05:05:06.422Z,9.12
2017-06-28T05:06:06.419Z,9.22
2017-06-28T05:07:06.115Z,9.3
2017-06-28T05:08:06.395Z,9.27
2017-06-28T05:09:06.388Z,9.49
2017-06-28T05:10:06.373Z,9.86
2017-06-28T05:11:06.371Z,10.17
2017-06-28T05:12:06.354Z,10.58
2017-06-28T05:13:06.350Z,10.8
2017-06-28T05:14:06.341Z,10.65
2017-06-28T05:15:06.332Z,10.35
2017-06-28T05:16:06.322Z,9.88
2017-06-28T05:17:06.310Z,9.7
2017-06-28T05:18:06.303Z,9.6
2017-06-28T05:19:06.294Z,9.44
2017-06-28T05:20:06.285Z,9.6
2017-06-28T05:21:06.275Z,9.6
2017-06-28T05:22:06.264Z,9.38
2017-06-28T05:23:06.250Z,9.35
2017-06-28T05:24:06.247Z,9.4
2017-06-28T05:25:06.238Z,9.32
2017-06-28T05:26:06.233Z,9.4
2017-06-28T05:27:06.224Z,9.37
2017-06-28T05:28:06.212Z,9.37
2017-06-28T05:29:06.198Z,9.42
2017-06-28T05:30:06.189Z,9.55
2017-06-28T05:31:06.179Z,9.92
2017-06-28T05:32:06.171Z,10.01
2017-06-28T05:33:06.163Z,10.14
2017-06-28T05:34:06.156Z,9.91
2017-06-28T05:35:06.144Z,9.89
2017-06-28T05:36:06.138Z,9.74
2017-06-28T05:37:06.131Z,10.07
2017-06-28T05:38:06.118Z,10.16
2017-06-28T05:39:05.808Z,10.57
2017-06-28T05:40:05.800Z,10.94
2017-06-28T05:41:06.091Z,10.95
2017-06-28T05:42:06.084Z,11.12
2017-06-28T05:43:06.076Z,11.7
2017-06-28T05:44:06.060Z,11.9
2017-06-28T05:45:06.058Z,11.27
2017-06-28T05:46:06.048Z,10.91
2017-06-28T05:47:06.039Z,10.42
2017-06-28T05:48:06.039Z,10.63
2017-06-28T05:49:06.026Z,11.06
2017-06-28T05:50:06.016Z,11.46
2017-06-28T05:51:06.006Z,11.63
2017-06-28T05:52:05.995Z,12.01
2017-06-28T05:53:05.988Z,12.61
2017-06-28T05:54:05.681Z,12.76
2017-06-28T05:55:05.970Z,12.91
2017-06-28T05:56:05.969Z,12.89
2017-06-28T05:57:05.955Z,12.48
2017-06-28T05:58:05.955Z,11.96
2017-06-28T05:59:05.641Z,11.54
2017-06-28T06:00:05.937Z,11.08
2017-06-28T06:01:05.929Z,10.91
2017-06-28T06:02:05.918Z,11.02
2017-06-28T06:03:05.907Z,11.13
2017-06-28T06:04:05.904Z,11.01
2017-06-28T06:05:05.899Z,11.08
2017-06-28T06:06:05.581Z,11.11
2017-06-28T06:07:05.874Z,11.19
2017-06-28T06:08:05.866Z,11.45
2017-06-28T06:09:05.858Z,11.82
2017-06-28T06:10:05.550Z,11.64
2017-06-28T06:11:05.539Z,11.9
2017-06-28T06:12:05.538Z,12.07
2017-06-28T06:13:05.525Z,12.18
2017-06-28T06:14:05.519Z,12.62
2017-06-28T06:15:05.510Z,12.76
2017-06-28T06:16:05.504Z,12.63
2017-06-28T06:17:05.799Z,13.09
2017-06-28T06:18:05.791Z,13.07
2017-06-28T06:19:05.483Z,13.31
2017-06-28T06:20:05.474Z,13.43
2017-06-28T06:21:05.768Z,12.33
2017-06-28T06:22:05.765Z,10.95
2017-06-28T06:23:05.754Z,11.16
2017-06-28T06:24:05.744Z,11.56
2017-06-28T06:25:05.438Z,11.9
2017-06-28T06:26:05.731Z,12.19
2017-06-28T06:27:05.727Z,12.07
2017-06-28T06:28:05.720Z,11.96
2017-06-28T06:29:05.712Z,11.77
2017-06-28T06:30:05.395Z,11.64
2017-06-28T06:31:05.698Z,11.57
2017-06-28T06:32:05.683Z,11.49
2017-06-28T06:33:05.682Z,11.6
2017-06-28T06:34:05.665Z,11.38
2017-06-28T06:35:05.363Z,11.24
2017-06-28T06:36:05.664Z,11.27
2017-06-28T06:37:05.346Z,11.17
2017-06-28T06:38:05.641Z,11.09
2017-06-28T06:39:05.632Z,11.09
2017-06-28T06:40:05.324Z,11.35
2017-06-28T06:41:05.618Z,11.45
2017-06-28T06:42:05.613Z,11.46
2017-06-28T06:43:05.301Z,11.45
2017-06-28T06:44:05.598Z,11.49
2017-06-28T06:45:05.589Z,11.16
2017-06-28T06:46:05.578Z,11.02
2017-06-28T06:47:05.271Z,10.93
2017-06-28T06:48:05.563Z,11.21
2017-06-28T06:49:05.557Z,11.79
2017-06-28T06:50:05.256Z,12.18
2017-06-28T06:51:05.539Z,12.77
2017-06-28T06:52:05.537Z,13.47
2017-06-28T06:53:05.524Z,13.54
2017-06-28T06:54:05.519Z,13.53
2017-06-28T06:55:05.512Z,13.29
2017-06-28T06:56:05.511Z,12.25
2017-06-28T06:57:05.199Z,11.63
2017-06-28T06:58:05.488Z,11.45
2017-06-28T06:59:05.481Z,11.46
2017-06-28T07:00:05.483Z,11.33
2017-06-28T07:01:05.472Z,11.36
2017-06-28T07:02:05.463Z,11.27
2017-06-28T07:03:05.459Z,11.08
2017-06-28T07:04:05.146Z,10.91
2017-06-28T07:05:05.437Z,10.69
2017-06-28T07:06:05.441Z,10.51
2017-06-28T07:07:05.427Z,10.16
2017-06-28T07:08:05.420Z,9.85
2017-06-28T07:09:05.419Z,9.49
2017-06-28T07:10:05.104Z,9.15
2017-06-28T07:11:05.400Z,8.94
2017-06-28T07:12:05.386Z,8.71
2017-06-28T07:13:05.378Z,8.36
2017-06-28T07:14:05.372Z,8.03
2017-06-28T07:15:05.360Z,7.96
2017-06-28T07:16:05.348Z,7.85
2017-06-28T07:17:05.341Z,7.7
2017-06-28T07:18:05.336Z,7.73
2017-06-28T07:19:05.323Z,7.58
2017-06-28T07:20:04.707Z,7.12
2017-06-28T07:21:05.301Z,6.78
2017-06-28T07:22:05.290Z,6.83
2017-06-28T07:23:05.286Z,6.69
2017-06-28T07:24:05.273Z,6.58
2017-06-28T07:25:05.260Z,6.65
2017-06-28T07:26:04.982Z,6.79
2017-06-28T07:27:05.238Z,6.86
2017-06-28T07:28:05.227Z,6.83
2017-06-28T07:29:05.215Z,6.86
2017-06-28T07:30:05.202Z,6.99
2017-06-28T07:31:05.191Z,7.08
2017-06-28T07:32:05.191Z,7.3
2017-06-28T07:33:05.166Z,7.42
2017-06-28T07:34:05.161Z,7.73
2017-06-28T07:35:04.844Z,8.2
2017-06-28T07:36:05.135Z,8.04
2017-06-28T07:37:05.123Z,7.94
2017-06-28T07:38:05.115Z,7.62
2017-06-28T07:39:05.104Z,7.82
2017-06-28T07:40:05.093Z,8.07
2017-06-28T07:41:05.079Z,7.79
2017-06-28T07:42:05.070Z,7.55
2017-06-28T07:43:05.056Z,7.27
2017-06-28T07:44:05.050Z,7.23
2017-06-28T07:45:04.733Z,7.41
2017-06-28T07:46:04.720Z,7.66
2017-06-28T07:47:05.013Z,7.54
2017-06-28T07:48:05.002Z,7.32
2017-06-28T07:49:04.989Z,7.5
2017-06-28T07:50:04.984Z,7.37
2017-06-28T07:51:04.667Z,7.5
2017-06-28T07:52:04.956Z,7.27
2017-06-28T07:53:04.955Z,7.62
2017-06-28T07:54:04.636Z,7.86
2017-06-28T07:55:04.926Z,7.52
2017-06-28T07:56:04.910Z,7.63
2017-06-28T07:57:04.898Z,7.76
2017-06-28T07:58:04.886Z,7.52
2017-06-28T07:59:04.880Z,7.47
2017-06-28T08:00:04.877Z,7.5
2017-06-28T08:01:04.859Z,7.48
2017-06-28T08:02:04.847Z,7.48
2017-06-28T08:03:04.834Z,7.73
2017-06-28T08:04:04.826Z,7.33
2017-06-28T08:05:04.808Z,7.32
2017-06-28T08:06:04.803Z,7.29
2017-06-28T08:07:04.486Z,7.33
2017-06-28T08:08:04.786Z,7.3
2017-06-28T08:09:04.770Z,7.16
2017-06-28T08:10:04.766Z,7.01
2017-06-28T08:11:04.749Z,6.89
2017-06-28T08:12:04.740Z,6.71
2017-06-28T08:13:04.723Z,6.57
2017-06-28T08:14:04.412Z,6.45
2017-06-28T08:15:04.701Z,6.57
2017-06-28T08:16:04.388Z,6.63
2017-06-28T08:17:04.684Z,6.53
2017-06-28T08:18:04.666Z,6.28
2017-06-28T08:19:04.655Z,6.55
2017-06-28T08:20:04.641Z,6.58
2017-06-28T08:21:04.631Z,6.61
2017-06-28T08:22:04.617Z,6.38
2017-06-28T08:23:04.307Z,6.32
2017-06-28T08:24:04.294Z,6.46
2017-06-28T08:25:04.585Z,6.65
2017-06-28T08:26:04.576Z,6.76
2017-06-28T08:27:04.558Z,7.08
2017-06-28T08:28:04.543Z,7.47
2017-06-28T08:29:04.541Z,7.45
2017-06-28T08:30:04.523Z,7.54
2017-06-28T08:31:04.514Z,7.76
2017-06-28T08:32:04.200Z,7.79
2017-06-28T08:33:04.488Z,8.02
2017-06-28T08:34:04.481Z,7.92
2017-06-28T08:35:04.467Z,7.67
2017-06-28T08:36:04.457Z,7.96
2017-06-28T08:37:04.141Z,8.07
2017-06-28T08:38:04.132Z,8.28
2017-06-28T08:39:04.420Z,8.42
2017-06-28T08:40:04.408Z,8.04
2017-06-28T08:41:04.092Z,7.89
2017-06-28T08:42:04.087Z,7.79
2017-06-28T08:43:04.380Z,7.86
2017-06-28T08:44:04.399Z,7.7
2017-06-28T08:45:03.759Z,7.71
2017-06-28T08:46:03.740Z,7.62
2017-06-28T08:47:04.335Z,7.74
2017-06-28T08:48:04.020Z,7.62
2017-06-28T08:49:03.706Z,7.62
2017-06-28T08:50:04.300Z,7.71
2017-06-28T08:51:04.287Z,7.77
2017-06-28T08:52:04.275Z,7.82
2017-06-28T08:53:03.963Z,7.81
2017-06-28T08:54:04.253Z,7.86
2017-06-28T08:55:04.245Z,7.96
2017-06-28T08:56:04.230Z,7.99
2017-06-28T08:57:04.226Z,8
2017-06-28T08:58:04.215Z,8.17
2017-06-28T08:59:04.200Z,8.39
2017-06-28T09:00:04.191Z,8.37
2017-06-28T09:01:03.877Z,8.42
2017-06-28T09:02:04.171Z,8.45
2017-06-28T09:03:03.860Z,8.43
2017-06-28T09:04:04.146Z,8.42
2017-06-28T09:05:03.837Z,8.61
2017-06-28T09:06:03.824Z,8.49
2017-06-28T09:07:04.115Z,8.57
2017-06-28T09:08:04.117Z,8.4
2017-06-28T09:09:04.098Z,8.27
2017-06-28T09:10:04.084Z,8.06
2017-06-28T09:11:04.072Z,8.14
2017-06-28T09:12:04.270Z,8.17
2017-06-28T09:13:04.048Z,8.36
2017-06-28T09:14:04.044Z,8.5
2017-06-28T09:15:03.729Z,8.32
2017-06-28T09:16:04.020Z,8.34
2017-06-28T09:17:17.387Z,8.54
2017-06-28T09:18:03.994Z,8.7
2017-06-28T09:19:03.996Z,8.68
2017-06-28T09:20:03.976Z,8.78
2017-06-28T09:21:03.968Z,8.67
2017-06-28T09:22:03.661Z,8.76
2017-06-28T09:23:03.945Z,8.82
2017-06-28T09:24:03.934Z,8.63
2017-06-28T09:25:03.923Z,8.46
2017-06-28T09:26:03.910Z,8.88
2017-06-28T09:27:03.901Z,8.78
2017-06-28T09:28:03.892Z,8.7
2017-06-28T09:29:03.879Z,8.58
2017-06-28T09:30:03.871Z,8.61
2017-06-28T09:31:03.862Z,8.85
2017-06-28T09:32:03.850Z,9.06
2017-06-28T09:33:03.861Z,9.15
2017-06-28T09:34:03.829Z,9.44
2017-06-28T09:35:03.817Z,9.12
2017-06-28T09:36:03.809Z,8.83
2017-06-28T09:37:03.821Z,9
2017-06-28T09:38:03.790Z,9.27
2017-06-28T09:39:03.780Z,9.53
2017-06-28T09:40:03.764Z,9.56
2017-06-28T09:41:03.758Z,9.62
2017-06-28T09:42:03.746Z,9.08
2017-06-28T09:43:03.437Z,8.8
2017-06-28T09:44:03.724Z,8.89
2017-06-28T09:45:03.721Z,8.54
2017-06-28T09:46:03.707Z,8.71
2017-06-28T09:47:03.695Z,9
2017-06-28T09:48:03.688Z,9.12
2017-06-28T09:49:17.312Z,9.04
2017-06-28T09:50:03.666Z,8.85
2017-06-28T09:51:03.659Z,9.13
2017-06-28T09:52:03.646Z,9.6
2017-06-28T09:53:03.647Z,9.73
2017-06-28T09:54:17.003Z,9.65
2017-06-28T09:55:17.262Z,9.37
2017-06-28T09:56:03.605Z,9.34
2017-06-28T09:57:03.604Z,9.35
2017-06-28T09:58:03.604Z,9.2
2017-06-28T09:59:03.578Z,9.4
2017-06-28T10:00:03.572Z,9.91
2017-06-28T10:01:03.263Z,9.99
2017-06-28T10:02:03.547Z,10.28
2017-06-28T10:03:03.545Z,10.18
2017-06-28T10:04:03.534Z,9.83
2017-06-28T10:05:03.523Z,9.62
2017-06-28T10:06:03.515Z,9.55
2017-06-28T10:07:03.508Z,9.35
2017-06-28T10:08:03.498Z,9.48
2017-06-28T10:09:03.498Z,9.68
2017-06-28T10:10:03.483Z,9.32
2017-06-28T10:11:03.467Z,9.3
2017-06-28T10:12:03.454Z,9.4
2017-06-28T10:13:03.455Z,9.23
2017-06-28T10:14:03.444Z,9.58
2017-06-28T10:15:03.429Z,9.38
2017-06-28T10:16:03.418Z,9.24
2017-06-28T10:17:03.422Z,9.24
2017-06-28T10:18:03.403Z,9.68
2017-06-28T10:19:03.391Z,10.04
2017-06-28T10:20:03.381Z,10.06
2017-06-28T10:21:03.374Z,10.28
2017-06-28T10:22:03.372Z,10.35
2017-06-28T10:23:03.354Z,9.96
2017-06-28T10:24:03.346Z,10.16
2017-06-28T10:25:03.338Z,10.24
2017-06-28T10:26:04.527Z,9.96
2017-06-28T10:27:03.317Z,10.26
2017-06-28T10:28:03.310Z,10.47
2017-06-28T10:29:03.302Z,11.11
2017-06-28T10:30:03.295Z,11.35
2017-06-28T10:31:03.478Z,11.57
2017-06-28T10:32:03.472Z,11.59
2017-06-28T10:33:02.961Z,11.45
2017-06-28T10:34:03.258Z,11.08
2017-06-28T10:35:02.942Z,11.19
2017-06-28T10:36:03.237Z,11.21
2017-06-28T10:37:03.229Z,11.6
2017-06-28T10:38:03.220Z,11.75
2017-06-28T10:39:03.208Z,12.18
2017-06-28T10:40:03.200Z,11.64
2017-06-28T10:41:03.199Z,11.78
2017-06-28T10:42:02.879Z,11.44
2017-06-28T10:43:03.175Z,11.62
2017-06-28T10:44:03.168Z,11.42
2017-06-28T10:45:03.157Z,11.97
2017-06-28T10:46:03.147Z,12.04
2017-06-28T10:47:03.142Z,12.41
2017-06-28T10:48:03.133Z,12.4
2017-06-28T10:49:03.123Z,11.54
2017-06-28T10:50:03.115Z,11.01
2017-06-28T10:51:03.106Z,10.86
2017-06-28T10:52:03.102Z,10.66
2017-06-28T10:53:03.089Z,10.91
2017-06-28T10:54:02.783Z,11.36
2017-06-28T10:55:02.773Z,11.66
2017-06-28T10:56:03.067Z,11.46
2017-06-28T10:57:03.054Z,11.11
2017-06-28T10:58:03.049Z,10.32
2017-06-28T10:59:02.738Z,10.52
2017-06-28T11:00:03.035Z,10.51
2017-06-28T11:01:02.720Z,11.16
2017-06-28T11:02:03.014Z,11.74
2017-06-28T11:03:02.708Z,12.05
2017-06-28T11:04:04.203Z,12.59
2017-06-28T11:05:02.994Z,12.59
2017-06-28T11:06:02.983Z,12.59
2017-06-28T11:07:02.972Z,13.44
2017-06-28T11:08:02.966Z,13.22
2017-06-28T11:09:02.955Z,13.25
2017-06-28T11:10:02.953Z,13.53
2017-06-28T11:11:02.945Z,13.9
2017-06-28T11:12:02.936Z,13.81
2017-06-28T11:13:02.928Z,13.36
2017-06-28T11:14:02.920Z,12.71
2017-06-28T11:15:02.909Z,12.66
2017-06-28T11:16:02.908Z,12.98
2017-06-28T11:17:02.597Z,13.47
2017-06-28T11:18:02.589Z,13.5
2017-06-28T11:19:02.880Z,13.68
2017-06-28T11:20:02.901Z,13.86
2017-06-28T11:21:02.883Z,13.84
2017-06-28T11:22:02.904Z,14.21
2017-06-28T11:23:02.869Z,14.34
2017-06-28T11:24:02.845Z,14.31
2017-06-28T11:25:02.843Z,14.05
2017-06-28T11:26:02.832Z,13.65
2017-06-28T11:27:02.827Z,13.32
2017-06-28T11:28:02.821Z,12.94
2017-06-28T11:29:02.809Z,12.7
2017-06-28T11:30:02.808Z,12.3
2017-06-28T11:31:02.800Z,11.48
2017-06-28T11:32:02.794Z,11.63
2017-06-28T11:33:02.788Z,11.63
2017-06-28T11:34:02.776Z,11.78
2017-06-28T11:35:02.769Z,12.01
2017-06-28T11:36:02.766Z,11.81
2017-06-28T11:37:02.755Z,11.46
2017-06-28T11:38:02.751Z,11.6
2017-06-28T11:39:02.738Z,11.49
2017-06-28T11:40:02.735Z,11.53
2017-06-28T11:41:02.724Z,11.51
2017-06-28T11:42:02.714Z,11.31
2017-06-28T11:43:15.443Z,11.31
2017-06-28T11:44:15.438Z,11.26
2017-06-28T11:45:02.691Z,11.48
2017-06-28T11:46:02.683Z,11.59
2017-06-28T11:47:02.374Z,11.63
2017-06-28T11:48:02.670Z,11.33
2017-06-28T11:49:02.858Z,11.53
2017-06-28T11:50:02.649Z,11.44
2017-06-28T11:51:02.644Z,11.59
2017-06-28T11:52:02.636Z,11.6
2017-06-28T11:53:02.830Z,11.59
2017-06-28T11:54:02.618Z,11.7
2017-06-28T11:55:02.612Z,12.07
2017-06-28T11:56:02.599Z,12.31
2017-06-28T11:57:02.595Z,12.76
2017-06-28T11:58:02.588Z,13.07
2017-06-28T11:59:02.575Z,12.95
2017-06-28T12:00:02.571Z,12.41
2017-06-28T12:01:02.563Z,12.05
2017-06-28T12:02:02.250Z,11.56
2017-06-28T12:03:02.547Z,11.42
2017-06-28T12:04:02.535Z,11.41
2017-06-28T12:05:02.530Z,11.26
2017-06-28T12:06:02.523Z,11.28
2017-06-28T12:07:02.515Z,11.3
2017-06-28T12:08:02.509Z,11.19
2017-06-28T12:09:02.500Z,11.42
2017-06-28T12:10:02.492Z,11.6
2017-06-28T12:11:02.179Z,11.75
2017-06-28T12:12:02.473Z,12.04
2017-06-28T12:13:02.165Z,12.25
2017-06-28T12:14:02.499Z,12.29
2017-06-28T12:15:02.449Z,12.18
2017-06-28T12:16:02.440Z,12.41
2017-06-28T12:17:02.128Z,12.41
2017-06-28T12:18:02.425Z,12.31
2017-06-28T12:19:02.419Z,12.07
2017-06-28T12:20:02.411Z,12.16
2017-06-28T12:21:02.402Z,12.22
2017-06-28T12:22:02.400Z,12.18
2017-06-28T12:23:02.389Z,12.36
2017-06-28T12:24:02.411Z,12.07
2017-06-28T12:25:02.378Z,11.78
2017-06-28T12:26:02.364Z,11.9
2017-06-28T12:27:02.563Z,12.03
2017-06-28T12:28:02.350Z,12.18
2017-06-28T12:29:02.346Z,12.4
2017-06-28T12:30:02.337Z,12.58
2017-06-28T12:31:02.332Z,12.62
2017-06-28T12:32:02.324Z,12.89
2017-06-28T12:33:02.321Z,12.26
2017-06-28T12:34:02.015Z,11.75
2017-06-28T12:35:02.301Z,11.62
2017-06-28T12:36:02.292Z,11.6
2017-06-28T12:37:02.289Z,11.96
2017-06-28T12:38:02.285Z,12.38
2017-06-28T12:39:02.276Z,12.58
2017-06-28T12:40:02.270Z,12.74
2017-06-28T12:41:02.265Z,12.59
2017-06-28T12:42:02.257Z,12.98
2017-06-28T12:43:01.950Z,12.91
2017-06-28T12:44:02.247Z,12.61
2017-06-28T12:45:02.236Z,12.77
2017-06-28T12:46:01.929Z,13.06
2017-06-28T12:47:02.219Z,12.71
2017-06-28T12:48:02.219Z,12.15
2017-06-28T12:49:02.214Z,12.04
2017-06-28T12:50:02.204Z,12.07
2017-06-28T12:51:02.201Z,11.77
2017-06-28T12:52:02.192Z,11.94
2017-06-28T12:53:01.884Z,12.12
2017-06-28T12:54:01.875Z,12.41
2017-06-28T12:55:02.168Z,12.51
2017-06-28T12:56:01.864Z,12.41
2017-06-28T12:57:02.155Z,12.05
2017-06-28T12:58:02.149Z,12.18
2017-06-28T12:59:02.141Z,12.58
2017-06-28T13:00:02.136Z,12.99
2017-06-28T13:01:02.131Z,13.44
2017-06-28T13:02:02.121Z,13.68
2017-06-28T13:03:02.111Z,13.57
2017-06-28T13:04:02.115Z,13.43
2017-06-28T13:05:02.105Z,13.35
2017-06-28T13:06:02.091Z,13.25
2017-06-28T13:07:02.086Z,13.12
2017-06-28T13:08:02.091Z,12.91
2017-06-28T13:09:02.076Z,12.7